Date,TemperatureHighF,TemperatureAvgF,TemperatureLowF,DewpointHighF,DewpointAvgF,DewpointLowF,HumidityHigh,HumidityAvg,HumidityLow,PressureMaxIn,PressureMinIn,WindSpeedMaxMPH,WindSpeedAvgMPH,GustSpeedMaxMPH,PrecipitationSumIn
2013-4-1,71.1,54.8,36.1,35.8,19.6,8.5,78,33,10,29.96,29.88,25,5,25,0.00
2013-4-2,75.4,53.7,33.1,26.3,17.2,6.8,58,29,10,29.96,29.85,17,1,17,0.00
2013-4-3,80.4,58.9,39.6,29.2,20.3,6.4,61,28,10,30.05,29.95,14,1,14,0.00
2013-4-4,69.6,45.6,37.8,27.4,22.8,19.6,56,42,16,30.08,30.04,6,0,6,0.00
2013-4-5,77.2,66.3,47.1,25.5,16.8,3.9,40,17,10,29.97,29.87,24,7,24,0.00
2013-4-6,76.5,58.7,38.8,30.4,20.5,7.3,61,29,10,29.96,29.86,20,3,20,0.00
2013-4-7,44.2,40.9,37.9,25.3,24.7,23.6,58,52,45,29.91,29.86,1,0,1,0.00
2013-4-8,61.9,50.1,39.9,39.7,31.9,1.7,84,52,23,29.51,29.45,59,11,59,0.04
2013-4-9,58.1,44.6,37.2,36.5,28.2,15.2,93,57,25,29.85,29.51,17,2,17,0.27
2013-4-10,69.4,48.9,31.1,23.9,15.5,-0.8,68,33,10,29.97,29.84,14,1,14,0.00
2013-4-11,72.7,57.3,33.1,23.3,14.3,7.5,59,22,10,29.94,29.79,17,4,17,0.00
2013-4-12,82.2,59.0,33.8,23.0,15.3,6.3,56,24,10,29.86,29.77,14,1,14,0.00
2013-4-13,77.4,61.9,37.6,24.1,15.7,5.9,52,20,10,29.86,29.73,23,5,23,0.77
2013-4-14,74.8,63.0,51.6,31.4,21.6,13.2,39,22,10,29.76,29.68,22,10,22,0.00
2013-4-15,71.2,59.8,48.4,38.3,31.7,20.4,53,36,16,29.74,29.69,24,11,24,0.00
2013-4-16,64.8,54.4,36.3,39.6,24.4,-1.6,69,36,10,29.75,29.68,29,12,29,0.18
2013-4-17,62.2,47.3,33.8,28.7,10.5,-6.7,73,29,10,30.00,29.74,15,2,15,0.39
2013-4-18,68.7,48.0,29.1,10.0,1.7,-12.2,37,17,10,30.12,29.99,13,1,13,0.00
2013-4-19,77.2,54.9,30.0,16.3,3.7,-7.5,30,13,10,30.14,29.94,16,2,16,0.00
2013-4-20,81.3,59.6,34.0,19.6,9.2,-7.4,34,15,10,30.01,29.89,17,1,17,0.00
2013-4-21,84.6,63.5,37.4,21.9,9.5,-5.1,32,13,10,30.05,29.95,15,1,15,0.00
2013-4-22,84.2,64.2,40.5,21.7,13.3,3.1,33,15,10,29.99,29.83,23,4,23,0.00
2013-4-23,80.4,62.1,41.0,19.0,11.0,-11.3,34,15,10,29.93,29.81,14,1,14,0.00
2013-4-24,77.9,59.2,35.1,16.9,5.4,-14.6,26,12,10,29.94,29.87,19,4,19,0.00
2013-4-25,71.8,58.0,39.0,30.9,19.7,8.9,49,25,10,30.03,29.88,24,5,24,0.00
2013-4-26,82.4,61.4,36.5,31.5,20.9,8.3,68,28,10,30.11,30.02,12,1,12,0.00
2013-4-27,86.5,67.6,46.4,23.6,13.3,-3.4,36,13,10,30.11,29.97,11,1,11,0.00
2013-4-28,91.2,69.3,44.2,27.0,10.7,-7.2,15,10,10,30.00,29.84,10,1,10,0.00
2013-4-29,67.1,60.8,56.1,8.8,4.5,1.3,13,10,10,29.89,29.87,2,0,2,0.00
2013-4-30,85.6,76.3,55.4,22.9,16.0,7.0,18,10,10,29.85,29.78,33,10,33,0.20